Terminal Aerodrome Forecast
Issued by NWS Sioux Falls, SD

Home | Current Version | Previous Version | Text Only | Print | Product List | Glossary On
Versions: 1 2 3 4 5 6 7 8 9 10 11 12 13 14 15 16 17 18 19 20 21 22 23 24 25 26 27 28 29 30 31
816
FTUS43 KFSD 221127
TAFSUX
TAF
KSUX 221127Z 2212/2312 24004KT P6SM SCT100 SCT200
     FM221500 28010KT P6SM FEW250
     FM222100 28013G19KT P6SM VCTS SCT060 BKN090CB
     FM230000 31009KT P6SM BKN120
     FM230300 34007KT P6SM BKN080=

USA.gov is the U.S. government's official web portal to all federal, state and local government web resources and services.